KGAG/GAG METAR and TAF weather

Enter ICAO airport designator
Station Type Date Time Source
KGAG METAR 2019/04/20 22:53 UTC NOAA

KGAG 202253Z AUTO 18024G33KT 10SM CLR 30/06 A2975 RMK AO2 PK WND 18033/2250 SLP056 T03000056 PNO $


Station Type Date Time Source
KGAG Decoded METAR 2019/04/20 22:53 UTC NOAA

GAGE AIRPORT, OK, United States (KGAG) 36-18N 99-46W 668M
Apr 20, 2019 - 06:53 PM EDT / 2019.04.20 2253 UTC
Wind: from the S (180 degrees) at 28 MPH (24 KT) gusting to 38 MPH (33 KT):0
Visibility: 10 mile(s):0
Sky conditions: clear
Temperature: 86.0 F (30.0 C)
Dew Point: 42.1 F (5.6 C)
Relative Humidity: 21%
Pressure (altimeter): 29.75 in. Hg (1007 hPa)
ob: KGAG 202253Z AUTO 18024G33KT 10SM CLR 30/06 A2975 RMK AO2 PK WND 18033/2250 SLP056 T03000056 PNO
cycle: 23

Station Type Date Time Source
KGAG TAF 2018/03/21 06:22 UTC NOAA

TAF KGAG 210520Z 2106/2206 VRB04KT P6SM SCT250
FM211300 16008KT P6SM SCT250
FM211800 18012G22KT P6SM BKN250

Example: see airport list